createdAt,value
2023-01-29T00:02:30.628Z,-2.34
2023-01-29T00:05:32.552Z,-2.36
2023-01-29T00:08:35.841Z,-2.35
2023-01-29T00:11:37.805Z,-2.31
2023-01-29T00:14:39.732Z,-2.30
2023-01-29T00:17:41.614Z,-2.28
2023-01-29T00:20:44.099Z,-2.32
2023-01-29T00:23:46.307Z,-2.30
2023-01-29T00:26:50.132Z,-2.33
2023-01-29T00:30:08.958Z,-2.36
2023-01-29T00:33:12.025Z,-2.36
2023-01-29T00:36:14.865Z,-2.39
2023-01-29T00:39:16.789Z,-2.35
2023-01-29T00:42:37.121Z,-2.40
2023-01-29T00:45:39.080Z,-2.40
2023-01-29T00:48:41.143Z,-2.39
2023-01-29T00:51:43.540Z,-2.38
2023-01-29T00:54:45.457Z,-2.42
2023-01-29T00:57:47.553Z,-2.43
2023-01-29T01:00:49.608Z,-2.40
2023-01-29T01:03:51.521Z,-2.40
2023-01-29T01:06:53.435Z,-2.51
2023-01-29T01:10:14.120Z,-2.47
2023-01-29T01:13:16.216Z,-2.45
2023-01-29T01:16:19.095Z,-2.48
2023-01-29T01:19:21.088Z,-2.46
2023-01-29T01:22:23.396Z,-2.44
2023-01-29T01:25:26.860Z,-2.51
2023-01-29T01:28:29.114Z,-2.47
2023-01-29T01:31:31.129Z,-2.48
2023-01-29T01:34:33.461Z,-2.47
2023-01-29T01:37:37.691Z,-2.50
2023-01-29T01:40:45.465Z,-2.55
2023-01-29T01:44:07.985Z,-2.55
2023-01-29T01:47:09.961Z,-2.57
2023-01-29T01:50:30.069Z,-2.58
2023-01-29T01:53:41.715Z,-2.59
2023-01-29T01:56:50.289Z,-2.55
2023-01-29T02:00:11.263Z,-2.55
2023-01-29T02:03:36.987Z,-2.57
2023-01-29T02:06:59.625Z,-2.55
2023-01-29T02:10:10.124Z,-2.55
2023-01-29T02:13:13.081Z,-2.57
2023-01-29T02:16:14.904Z,-2.58
2023-01-29T02:19:27.809Z,-2.59
2023-01-29T02:22:56.853Z,-2.58
2023-01-29T02:26:11.167Z,-2.57
2023-01-29T02:29:23.239Z,-2.59
2023-01-29T02:32:41.643Z,-2.60
2023-01-29T02:35:55.436Z,-2.59
2023-01-29T02:39:23.509Z,-2.59
2023-01-29T02:42:32.455Z,-2.61
2023-01-29T02:45:52.727Z,-2.62
2023-01-29T02:49:02.064Z,-2.61
2023-01-29T02:52:21.589Z,-2.65
2023-01-29T02:55:39.149Z,-2.66
2023-01-29T02:58:47.974Z,-2.72
2023-01-29T03:01:57.052Z,-2.68
2023-01-29T03:05:01.881Z,-2.68
2023-01-29T03:08:11.376Z,-2.69
2023-01-29T03:11:15.084Z,-2.76
2023-01-29T03:14:55.221Z,-2.74
2023-01-29T03:18:02.495Z,-2.79
2023-01-29T03:21:30.978Z,-2.76
2023-01-29T03:24:51.634Z,-2.79
2023-01-29T03:28:20.770Z,-2.80
2023-01-29T03:31:44.083Z,-2.84
2023-01-29T03:34:52.471Z,-2.92
2023-01-29T03:37:56.943Z,-2.93
2023-01-29T03:41:17.089Z,-2.91
2023-01-29T03:44:49.103Z,-2.89
2023-01-29T03:48:14.333Z,-2.82
2023-01-29T03:51:27.253Z,-2.77
2023-01-29T03:54:37.529Z,-2.76
2023-01-29T03:57:50.250Z,-2.74
2023-01-29T04:01:01.480Z,-2.71
2023-01-29T04:04:15.136Z,-2.70
2023-01-29T04:07:19.084Z,-2.75
2023-01-29T04:10:26.939Z,-2.76
2023-01-29T04:13:33.799Z,-2.75
2023-01-29T04:16:44.592Z,-2.73
2023-01-29T04:19:49.804Z,-2.77
2023-01-29T04:22:52.433Z,-2.81
2023-01-29T04:26:18.993Z,-2.77
2023-01-29T04:29:30.392Z,-2.80
2023-01-29T04:33:00.295Z,-2.81
2023-01-29T04:36:14.451Z,-2.84
2023-01-29T04:39:27.572Z,-2.88
2023-01-29T04:42:40.537Z,-2.90
2023-01-29T04:46:00.664Z,-2.91
2023-01-29T04:49:18.496Z,-2.98
2023-01-29T04:52:24.080Z,-2.97
2023-01-29T04:55:36.153Z,-2.96
2023-01-29T04:58:49.965Z,-2.96
2023-01-29T05:01:53.286Z,-2.94
2023-01-29T05:04:58.611Z,-3.00
2023-01-29T05:08:00.515Z,-3.01
2023-01-29T05:11:02.380Z,-3.01
2023-01-29T05:14:08.119Z,-3.05
2023-01-29T05:17:15.873Z,-3.03
2023-01-29T05:20:18.353Z,-3.07
2023-01-29T05:23:22.536Z,-3.09
2023-01-29T05:26:42.999Z,-3.07
2023-01-29T05:29:48.312Z,-3.10
2023-01-29T05:32:50.257Z,-3.13
2023-01-29T05:35:52.307Z,-3.06
2023-01-29T05:38:54.163Z,-3.00
2023-01-29T05:41:56.056Z,-3.00
2023-01-29T05:44:57.960Z,-3.04
2023-01-29T05:48:00.696Z,-3.04
2023-01-29T05:51:04.792Z,-3.08
2023-01-29T05:54:06.755Z,-3.03
2023-01-29T05:57:08.687Z,-3.08
2023-01-29T06:00:13.183Z,-3.11
2023-01-29T06:03:15.844Z,-3.06
2023-01-29T06:06:18.081Z,-3.08
2023-01-29T06:09:20.082Z,-3.07
2023-01-29T06:12:22.109Z,-3.09
2023-01-29T06:15:26.462Z,-3.11
2023-01-29T06:18:28.485Z,-3.14
2023-01-29T06:21:30.321Z,-3.15
2023-01-29T06:24:32.948Z,-3.12
2023-01-29T06:27:34.867Z,-3.14
2023-01-29T06:30:36.870Z,-3.10
2023-01-29T06:33:38.816Z,-3.05
2023-01-29T06:36:41.954Z,-3.00
2023-01-29T06:39:44.117Z,-2.99
2023-01-29T06:42:46.983Z,-3.01
2023-01-29T06:45:56.799Z,-2.98
2023-01-29T06:49:00.798Z,-2.97
2023-01-29T06:52:02.706Z,-2.96
2023-01-29T06:55:04.948Z,-3.00
2023-01-29T06:58:08.625Z,-2.99
2023-01-29T07:01:19.702Z,-2.99
2023-01-29T07:04:31.187Z,-3.03
2023-01-29T07:07:36.784Z,-3.03
2023-01-29T07:10:38.703Z,-2.98
2023-01-29T07:13:40.586Z,-2.92
2023-01-29T07:16:42.575Z,-2.94
2023-01-29T07:19:44.468Z,-2.99
2023-01-29T07:22:46.381Z,-2.93
2023-01-29T07:25:49.942Z,-2.90
2023-01-29T07:28:51.981Z,-2.84
2023-01-29T07:31:53.993Z,-2.82
2023-01-29T07:34:55.906Z,-2.72
2023-01-29T07:37:58.316Z,-2.69
2023-01-29T07:41:01.349Z,-2.63
2023-01-29T07:44:05.005Z,-2.63
2023-01-29T07:47:06.955Z,-2.60
2023-01-29T07:50:09.558Z,-2.64
2023-01-29T07:53:15.276Z,-2.58
2023-01-29T07:56:17.189Z,-2.56
2023-01-29T07:59:19.072Z,-2.52
2023-01-29T08:02:20.951Z,-2.43
2023-01-29T08:05:22.894Z,-2.38
2023-01-29T08:08:25.891Z,-2.38
2023-01-29T08:11:27.706Z,-2.30
2023-01-29T08:14:29.634Z,-2.21
2023-01-29T08:17:31.581Z,-2.18
2023-01-29T08:20:33.551Z,-2.11
2023-01-29T08:23:35.509Z,-2.09
2023-01-29T08:26:37.409Z,-2.06
2023-01-29T08:29:39.368Z,-2.02
2023-01-29T08:32:41.229Z,-2.03
2023-01-29T08:35:43.222Z,-2.01
2023-01-29T08:38:45.232Z,-2.03
2023-01-29T08:41:47.128Z,-2.03
2023-01-29T08:44:48.974Z,-1.97
2023-01-29T08:47:51.082Z,-2.03
2023-01-29T08:50:53.123Z,-2.07
2023-01-29T08:53:55.077Z,-2.14
2023-01-29T08:56:56.987Z,-2.12
2023-01-29T08:59:59.026Z,-2.16
2023-01-29T09:03:01.135Z,-2.12
2023-01-29T09:06:03.821Z,-2.06
2023-01-29T09:09:05.759Z,-2.02
2023-01-29T09:12:07.807Z,-2.04
2023-01-29T09:15:10.178Z,-2.03
2023-01-29T09:18:12.103Z,-2.12
2023-01-29T09:21:13.922Z,-2.18
2023-01-29T09:24:16.074Z,-2.16
2023-01-29T09:27:18.048Z,-2.18
2023-01-29T09:30:19.932Z,-2.18
2023-01-29T09:33:21.953Z,-2.14
2023-01-29T09:36:23.922Z,-2.12
2023-01-29T09:39:26.994Z,-2.14
2023-01-29T09:43:21.226Z,-2.14
2023-01-29T09:46:30.981Z,-2.11
2023-01-29T09:49:39.526Z,-2.10
2023-01-29T09:52:48.130Z,-2.12
2023-01-29T09:55:55.609Z,-2.09
2023-01-29T09:59:01.381Z,-2.12
2023-01-29T10:02:22.631Z,-2.13
2023-01-29T10:05:40.896Z,-2.10
2023-01-29T10:08:54.784Z,-2.20
2023-01-29T10:12:22.826Z,-2.16
2023-01-29T10:15:45.253Z,-2.22
2023-01-29T10:19:09.079Z,-2.13
2023-01-29T10:22:25.772Z,-2.15
2023-01-29T10:25:28.151Z,-2.15
2023-01-29T10:28:46.615Z,-2.12
2023-01-29T10:31:55.550Z,-2.02
2023-01-29T10:35:21.687Z,-2.03
2023-01-29T10:38:44.371Z,-1.92
2023-01-29T10:42:14.191Z,-1.97
2023-01-29T10:45:46.473Z,-1.99
2023-01-29T10:48:54.417Z,-2.00
2023-01-29T10:51:56.201Z,-2.02
2023-01-29T10:55:20.009Z,-2.05
2023-01-29T10:58:36.715Z,-2.06
2023-01-29T11:01:38.708Z,-2.12
2023-01-29T11:04:40.668Z,-2.11
2023-01-29T11:07:42.768Z,-2.05
2023-01-29T11:11:09.808Z,-2.10
2023-01-29T11:14:22.688Z,-1.99
2023-01-29T11:17:26.155Z,-2.04
2023-01-29T11:21:02.960Z,-2.03
2023-01-29T11:24:07.367Z,-1.98
2023-01-29T11:27:33.255Z,-1.95
2023-01-29T11:30:39.435Z,-1.97
2023-01-29T11:33:41.582Z,-2.00
2023-01-29T11:36:45.069Z,-2.01
2023-01-29T11:39:50.692Z,-2.01
2023-01-29T11:42:53.846Z,-1.96
2023-01-29T11:45:59.549Z,-1.90
2023-01-29T11:49:14.382Z,-1.93
2023-01-29T11:52:25.407Z,-1.94
2023-01-29T11:55:49.439Z,-1.93
2023-01-29T11:58:55.600Z,-2.01
2023-01-29T12:02:06.762Z,-2.01
2023-01-29T12:05:18.837Z,-1.98
2023-01-29T12:08:23.622Z,-1.98
2023-01-29T12:11:31.786Z,-1.95
2023-01-29T12:14:34.423Z,-1.94
2023-01-29T12:17:39.184Z,-1.98
2023-01-29T12:20:56.293Z,-2.03
2023-01-29T12:24:02.451Z,-2.10
2023-01-29T12:27:22.639Z,-2.11
2023-01-29T12:30:54.918Z,-2.14
2023-01-29T12:34:15.665Z,-2.09
2023-01-29T12:37:18.140Z,-2.01
2023-01-29T12:40:25.384Z,-2.00
2023-01-29T12:43:42.343Z,-1.93
2023-01-29T12:46:50.663Z,-1.87
2023-01-29T12:49:57.204Z,-1.95
2023-01-29T12:53:25.368Z,-1.99
2023-01-29T12:56:33.114Z,-2.10
2023-01-29T13:00:01.774Z,-2.13
2023-01-29T13:03:25.712Z,-2.13
2023-01-29T13:06:36.682Z,-2.12
2023-01-29T13:09:41.953Z,-2.15
2023-01-29T13:12:57.559Z,-2.11
2023-01-29T13:16:01.576Z,-2.20
2023-01-29T13:19:07.537Z,-2.12
2023-01-29T13:22:21.996Z,-2.07
2023-01-29T13:25:24.174Z,-2.09
2023-01-29T13:28:27.849Z,-2.09
2023-01-29T13:31:29.859Z,-2.15
2023-01-29T13:34:35.560Z,-2.15
2023-01-29T13:37:46.499Z,-2.19
2023-01-29T13:40:52.073Z,-2.17
2023-01-29T13:43:54.113Z,-2.15
2023-01-29T13:46:58.206Z,-2.15
2023-01-29T13:50:21.350Z,-2.05
2023-01-29T13:53:27.160Z,-2.13
2023-01-29T13:56:33.513Z,-2.14
2023-01-29T14:00:05.397Z,-2.25
2023-01-29T14:03:11.867Z,-2.25
2023-01-29T14:06:41.616Z,-2.25
2023-01-29T14:09:43.459Z,-2.20
2023-01-29T14:12:46.397Z,-2.26
2023-01-29T14:15:57.434Z,-2.38
2023-01-29T14:19:02.332Z,-2.32
2023-01-29T14:22:05.664Z,-2.30
2023-01-29T14:25:16.408Z,-2.30
2023-01-29T14:28:25.219Z,-2.35
2023-01-29T14:31:31.477Z,-2.36
2023-01-29T14:34:36.956Z,-2.34
2023-01-29T14:37:41.154Z,-2.43
2023-01-29T14:40:46.767Z,-2.37
2023-01-29T14:43:49.109Z,-2.34
2023-01-29T14:46:51.118Z,-2.42
2023-01-29T14:50:03.653Z,-2.44
2023-01-29T14:53:14.684Z,-2.39
2023-01-29T14:56:24.679Z,-2.41
2023-01-29T14:59:31.569Z,-2.45
2023-01-29T15:02:43.213Z,-2.45
2023-01-29T15:05:46.943Z,-2.46
2023-01-29T15:09:11.152Z,-2.45
2023-01-29T15:12:28.655Z,-2.51
2023-01-29T15:15:46.277Z,-2.52
2023-01-29T15:18:51.228Z,-2.52
2023-01-29T15:22:09.375Z,-2.51
2023-01-29T15:25:15.652Z,-2.51
2023-01-29T15:28:17.786Z,-2.49
2023-01-29T15:31:20.463Z,-2.50
2023-01-29T15:34:22.985Z,-2.54
2023-01-29T15:37:33.303Z,-2.51
2023-01-29T15:40:35.291Z,-2.46
2023-01-29T15:43:44.507Z,-2.50
2023-01-29T15:46:52.713Z,-2.49
2023-01-29T15:49:57.331Z,-2.51
2023-01-29T15:53:03.815Z,-2.53
2023-01-29T15:56:10.736Z,-2.54
2023-01-29T15:59:23.447Z,-2.50
2023-01-29T16:02:28.286Z,-2.52
2023-01-29T16:05:33.107Z,-2.52
2023-01-29T16:08:35.822Z,-2.50
2023-01-29T16:11:37.982Z,-2.50
2023-01-29T16:14:41.585Z,-2.53
2023-01-29T16:17:45.779Z,-2.48
2023-01-29T16:20:53.197Z,-2.54
2023-01-29T16:24:15.927Z,-2.53
2023-01-29T16:27:17.849Z,-2.58
2023-01-29T16:30:20.034Z,-2.58
2023-01-29T16:33:21.902Z,-2.60
2023-01-29T16:36:27.657Z,-2.63
2023-01-29T16:39:37.898Z,-2.66
2023-01-29T16:42:41.656Z,-2.68
2023-01-29T16:46:01.286Z,-2.70
2023-01-29T16:49:25.772Z,-2.71
2023-01-29T16:52:29.576Z,-2.71
2023-01-29T16:55:43.703Z,-2.68
2023-01-29T16:58:53.402Z,-2.71
2023-01-29T17:01:56.179Z,-2.70
2023-01-29T17:05:02.647Z,-2.73
2023-01-29T17:08:05.849Z,-2.70
2023-01-29T17:11:08.328Z,-2.70
2023-01-29T17:14:18.636Z,-2.68
2023-01-29T17:17:20.543Z,-2.64
2023-01-29T17:20:23.020Z,-2.67
2023-01-29T17:23:25.017Z,-2.70
2023-01-29T17:26:27.007Z,-2.70
2023-01-29T17:29:31.771Z,-2.76
2023-01-29T17:32:43.945Z,-2.77
2023-01-29T17:35:47.333Z,-2.82
2023-01-29T17:38:49.200Z,-2.87
2023-01-29T17:41:56.171Z,-2.87
2023-01-29T17:44:58.077Z,-2.93
2023-01-29T17:48:00.009Z,-2.95
2023-01-29T17:51:04.634Z,-2.98
2023-01-29T17:54:06.543Z,-2.98
2023-01-29T17:57:18.411Z,-3.01
2023-01-29T18:00:23.957Z,-3.01
2023-01-29T18:03:27.543Z,-2.99
2023-01-29T18:06:30.083Z,-3.04
2023-01-29T18:09:32.052Z,-3.00
2023-01-29T18:12:33.952Z,-2.89
2023-01-29T18:15:35.943Z,-2.86
2023-01-29T18:18:37.837Z,-2.83
2023-01-29T18:21:39.725Z,-2.83
2023-01-29T18:24:41.613Z,-2.90
2023-01-29T18:27:43.854Z,-2.97
2023-01-29T18:30:47.539Z,-3.03
2023-01-29T18:33:49.720Z,-2.96
2023-01-29T18:36:51.611Z,-2.98
2023-01-29T18:39:53.920Z,-2.98
2023-01-29T18:42:55.899Z,-2.98
2023-01-29T18:45:59.958Z,-2.98
2023-01-29T18:49:01.909Z,-2.95
2023-01-29T18:52:03.921Z,-2.97
2023-01-29T18:55:06.402Z,-3.01
2023-01-29T18:58:26.211Z,-3.07
2023-01-29T19:01:32.077Z,-3.02
2023-01-29T19:04:34.016Z,-2.99
2023-01-29T19:07:36.114Z,-2.99
2023-01-29T19:10:38.152Z,-3.01
2023-01-29T19:13:40.981Z,-3.08
2023-01-29T19:16:43.783Z,-3.09
2023-01-29T19:19:45.836Z,-3.08
2023-01-29T19:22:48.399Z,-3.13
2023-01-29T19:25:50.389Z,-3.20
2023-01-29T19:28:52.247Z,-3.19
2023-01-29T19:31:54.197Z,-3.18
2023-01-29T19:34:57.837Z,-3.24
2023-01-29T19:38:00.884Z,-3.26
2023-01-29T19:41:02.972Z,-3.33
2023-01-29T19:44:05.008Z,-3.31
2023-01-29T19:47:07.014Z,-3.25
2023-01-29T19:50:10.582Z,-3.29
2023-01-29T19:53:12.507Z,-3.25
2023-01-29T19:56:16.568Z,-3.22
2023-01-29T19:59:18.882Z,-3.22
2023-01-29T20:02:20.864Z,-3.21
2023-01-29T20:05:26.262Z,-3.19
2023-01-29T20:08:28.127Z,-3.25
2023-01-29T20:11:31.146Z,-3.40
2023-01-29T20:14:32.944Z,-3.52
2023-01-29T20:17:34.825Z,-3.57
2023-01-29T20:20:39.829Z,-3.61
2023-01-29T20:23:43.359Z,-3.68
2023-01-29T20:26:46.866Z,-3.75
2023-01-29T20:29:48.865Z,-3.81
2023-01-29T20:32:50.782Z,-3.90
2023-01-29T20:36:03.240Z,-3.95
2023-01-29T20:39:05.223Z,-3.98
2023-01-29T20:42:07.857Z,-4.05
2023-01-29T20:45:10.192Z,-4.12
2023-01-29T20:48:12.389Z,-4.21
2023-01-29T20:51:17.767Z,-4.26
2023-01-29T20:54:19.830Z,-4.30
2023-01-29T20:57:21.812Z,-4.33
2023-01-29T21:00:23.871Z,-4.38
2023-01-29T21:03:28.465Z,-4.41
2023-01-29T21:06:30.402Z,-4.43
2023-01-29T21:09:32.341Z,-4.47
2023-01-29T21:12:35.113Z,-4.51
2023-01-29T21:15:37.088Z,-4.59
2023-01-29T21:18:39.100Z,-4.61
2023-01-29T21:21:40.963Z,-4.63
2023-01-29T21:24:42.969Z,-4.68
2023-01-29T21:27:45.550Z,-4.75
2023-01-29T21:30:48.007Z,-4.76
2023-01-29T21:33:50.096Z,-4.81
2023-01-29T21:36:52.129Z,-4.87
2023-01-29T21:39:54.042Z,-4.87
2023-01-29T21:43:12.227Z,-4.90
2023-01-29T21:46:15.200Z,-4.94
2023-01-29T21:49:17.115Z,-5.01
2023-01-29T21:52:20.989Z,-5.00
2023-01-29T21:55:25.556Z,-5.05
2023-01-29T21:58:27.751Z,-5.15
2023-01-29T22:01:37.515Z,-5.21
2023-01-29T22:04:42.029Z,-5.25
2023-01-29T22:07:44.502Z,-5.26
2023-01-29T22:10:46.552Z,-5.28
2023-01-29T22:13:48.591Z,-5.27
2023-01-29T22:16:50.536Z,-5.31
2023-01-29T22:19:53.617Z,-5.36
2023-01-29T22:23:00.528Z,-5.41
2023-01-29T22:26:03.909Z,-5.43
2023-01-29T22:29:05.762Z,-5.44
2023-01-29T22:32:08.330Z,-5.46
2023-01-29T22:35:11.250Z,-5.49
2023-01-29T22:38:13.114Z,-5.49
2023-01-29T22:41:15.379Z,-5.55
2023-01-29T22:44:17.304Z,-5.58
2023-01-29T22:47:19.289Z,-5.62
2023-01-29T22:50:22.241Z,-5.63
2023-01-29T22:53:24.008Z,-5.73
2023-01-29T22:56:27.532Z,-5.70
2023-01-29T22:59:30.208Z,-5.68
2023-01-29T23:02:32.897Z,-5.73
2023-01-29T23:05:34.804Z,-5.76
2023-01-29T23:08:36.701Z,-5.84
2023-01-29T23:11:38.652Z,-5.88
2023-01-29T23:14:40.870Z,-5.90
2023-01-29T23:17:42.808Z,-5.96
2023-01-29T23:20:44.648Z,-6.02
2023-01-29T23:23:47.339Z,-6.11
2023-01-29T23:27:07.533Z,-6.14
2023-01-29T23:30:09.974Z,-6.24
2023-01-29T23:33:12.251Z,-6.36
2023-01-29T23:36:14.541Z,-6.39
2023-01-29T23:39:16.706Z,-6.42
2023-01-29T23:42:18.721Z,-6.41
2023-01-29T23:45:20.558Z,-6.45
2023-01-29T23:48:22.864Z,-6.55
2023-01-29T23:51:24.757Z,-6.58
2023-01-29T23:54:26.906Z,-6.67
2023-01-29T23:57:28.759Z,-6.82
